EKYT/AAL METAR and TAF weather

Enter ICAO airport designator
Station Type Date Time Source
EKYT METAR 2022/06/26 07:54 UTC NOAA

EKYT 260754Z 13012KT CAVOK 22/17 Q1014


Station Type Date Time Source
EKYT Decoded METAR 2022/06/26 07:54 UTC NOAA

Aalborg, Denmark (EKYT) 57-06N 009-51E 13M
Jun 26, 2022 - 03:54 AM EDT / 2022.06.26 0754 UTC
Wind: from the SE (130 degrees) at 14 MPH (12 KT):0
Visibility: greater than 7 mile(s):0
Temperature: 71 F (22 C)
Dew Point: 62 F (17 C)
Relative Humidity: 73%
Pressure (altimeter): 29.94 in. Hg (1014 hPa)
ob: EKYT 260754Z 13012KT CAVOK 22/17 Q1014
cycle: 8

Station Type Date Time Source
EKYT TAF 2022/06/26 06:31 UTC NOAA

TAF EKYT 260500Z 2606/2706 10008KT 9999 SCT080
TEMPO 2609/2616 6000 SHRA SCT030CB
BECMG 2612/2614 25010KT
TEMPO 2622/2703 6000 SHRA SCT040CB
TEMPO 2703/2706 5000 SHRA BKN010 BKN030CB

Example: see airport list